Time,TemperatureF,DewpointF,PressureIn,WindDirection,WindDirectionDegrees,WindSpeedMPH,WindSpeedGustMPH,Humidity,HourlyPrecipIn,Conditions,Clouds,dailyrainin,SoftwareType,DateUTC
2013-07-18 00:09:00,72.6,71.0,30.12,NE,49,0.0,1.0,96,0.00,,,0.00,weatherlink.com 1.10,2013-07-18 05:09:00,
2013-07-18 00:24:00,72.5,71.0,30.12,NE,47,2.0,3.0,96,0.00,,,0.00,weatherlink.com 1.10,2013-07-18 05:24:00,
2013-07-18 00:39:00,72.4,72.0,30.13,ENE,65,3.0,4.0,97,0.00,,,0.00,weatherlink.com 1.10,2013-07-18 05:39:00,
2013-07-18 00:54:00,72.5,72.0,30.12,NE,50,4.0,5.0,97,0.00,,,0.00,weatherlink.com 1.10,2013-07-18 05:54:00,
2013-07-18 01:09:00,72.5,72.0,30.13,NE,53,4.0,6.0,97,0.00,,,0.00,weatherlink.com 1.10,2013-07-18 06:09:00,
2013-07-18 01:24:00,72.6,72.0,30.13,ENE,64,4.0,5.0,97,0.00,,,0.00,weatherlink.com 1.10,2013-07-18 06:24:00,
2013-07-18 01:39:00,72.6,72.0,30.12,ENE,74,6.0,6.0,97,0.00,,,0.00,weatherlink.com 1.10,2013-07-18 06:39:00,
2013-07-18 01:54:00,72.6,72.0,30.12,NE,56,5.0,5.0,97,0.00,,,0.00,weatherlink.com 1.10,2013-07-18 06:54:00,
2013-07-18 02:09:00,72.5,72.0,30.12,NE,51,3.0,5.0,97,0.00,,,0.00,weatherlink.com 1.10,2013-07-18 07:09:00,
2013-07-18 02:24:00,72.5,72.0,30.11,ENE,77,2.0,4.0,97,0.00,,,0.00,weatherlink.com 1.10,2013-07-18 07:24:00,
2013-07-18 02:39:00,72.5,72.0,30.11,ENE,65,4.0,5.0,97,0.00,,,0.00,weatherlink.com 1.10,2013-07-18 07:39:00,
2013-07-18 02:54:00,72.5,72.0,30.10,NE,51,4.0,5.0,97,0.00,,,0.00,weatherlink.com 1.10,2013-07-18 07:54:00,
2013-07-18 03:09:00,72.5,72.0,30.09,NE,34,5.0,6.0,97,0.01,,,0.01,weatherlink.com 1.10,2013-07-18 08:09:00,
2013-07-18 03:24:00,72.6,72.0,30.09,NE,37,3.0,5.0,97,0.01,,,0.01,weatherlink.com 1.10,2013-07-18 08:24:00,
2013-07-18 03:39:00,72.6,72.0,30.09,NE,47,3.0,6.0,97,0.01,,,0.01,weatherlink.com 1.10,2013-07-18 08:39:00,
2013-07-18 03:54:00,72.6,72.0,30.09,ENE,58,5.0,6.0,97,0.01,,,0.01,weatherlink.com 1.10,2013-07-18 08:54:00,
2013-07-18 04:09:00,72.7,72.0,30.09,NE,54,6.0,9.0,97,0.00,,,0.01,weatherlink.com 1.10,2013-07-18 09:09:00,
2013-07-18 04:24:00,72.6,72.0,30.09,ENE,60,4.0,6.0,98,0.00,,,0.01,weatherlink.com 1.10,2013-07-18 09:24:00,
2013-07-18 04:39:00,72.6,72.0,30.09,NE,47,6.0,7.0,98,0.00,,,0.01,weatherlink.com 1.10,2013-07-18 09:39:00,
2013-07-18 04:54:00,72.7,72.0,30.09,NE,45,7.0,7.0,98,0.00,,,0.01,weatherlink.com 1.10,2013-07-18 09:54:00,
2013-07-18 05:09:00,72.7,72.0,30.09,NE,47,4.0,6.0,98,0.00,,,0.01,weatherlink.com 1.10,2013-07-18 10:09:00,
2013-07-18 05:24:00,72.7,72.0,30.09,NE,43,3.0,6.0,98,0.00,,,0.01,weatherlink.com 1.10,2013-07-18 10:24:00,
2013-07-18 05:39:00,72.7,72.0,30.10,ENE,62,3.0,6.0,98,0.00,,,0.01,weatherlink.com 1.10,2013-07-18 10:39:00,
2013-07-18 05:54:00,72.7,72.0,30.10,NE,37,3.0,7.0,98,0.00,,,0.01,weatherlink.com 1.10,2013-07-18 10:54:00,
2013-07-18 06:09:00,72.7,72.0,30.10,NE,56,6.0,6.0,97,0.00,,,0.01,weatherlink.com 1.10,2013-07-18 11:09:00,
2013-07-18 06:24:00,72.8,72.0,30.09,ENE,61,3.0,7.0,97,0.00,,,0.01,weatherlink.com 1.10,2013-07-18 11:24:00,
2013-07-18 06:39:00,72.8,72.0,30.10,NE,53,3.0,6.0,97,0.00,,,0.01,weatherlink.com 1.10,2013-07-18 11:39:00,
2013-07-18 06:54:00,72.8,72.0,30.10,NE,54,3.0,5.0,97,0.00,,,0.01,weatherlink.com 1.10,2013-07-18 11:54:00,
2013-07-18 07:09:00,72.9,72.0,30.10,NE,50,5.0,7.0,97,0.00,,,0.01,weatherlink.com 1.10,2013-07-18 12:09:00,
2013-07-18 07:24:00,73.0,72.0,30.10,ENE,68,3.0,7.0,97,0.00,,,0.01,weatherlink.com 1.10,2013-07-18 12:24:00,
2013-07-18 07:39:00,73.3,72.0,30.10,NE,52,5.0,8.0,97,0.00,,,0.01,weatherlink.com 1.10,2013-07-18 12:39:00,
2013-07-18 07:54:00,73.5,73.0,30.10,ENE,74,6.0,9.0,97,0.00,,,0.01,weatherlink.com 1.10,2013-07-18 12:54:00,
2013-07-18 08:09:00,73.7,73.0,30.10,NE,45,6.0,8.0,97,0.00,,,0.01,weatherlink.com 1.10,2013-07-18 13:09:00,
2013-07-18 08:24:00,74.3,73.0,30.11,NE,54,3.0,7.0,97,0.00,,,0.01,weatherlink.com 1.10,2013-07-18 13:24:00,
2013-07-18 08:39:00,75.1,74.0,30.11,ENE,63,6.0,6.0,97,0.00,,,0.01,weatherlink.com 1.10,2013-07-18 13:39:00,
2013-07-18 08:54:00,76.1,75.0,30.11,ENE,60,4.0,9.0,96,0.00,,,0.01,weatherlink.com 1.10,2013-07-18 13:54:00,
2013-07-18 09:10:00,77.1,75.0,30.11,ENE,70,4.0,7.0,94,0.00,,,0.01,weatherlink.com 1.10,2013-07-18 14:10:00,
2013-07-18 09:25:00,78.4,76.0,30.11,ENE,68,6.0,8.0,91,0.00,,,0.01,weatherlink.com 1.10,2013-07-18 14:25:00,
2013-07-18 09:40:00,79.9,76.0,30.11,ENE,66,7.0,9.0,88,0.00,,,0.01,weatherlink.com 1.10,2013-07-18 14:40:00,
2013-07-18 09:55:00,80.8,77.0,30.11,ENE,77,6.0,10.0,87,0.00,,,0.01,weatherlink.com 1.10,2013-07-18 14:55:00,
2013-07-18 10:10:00,81.6,75.0,30.12,East,97,6.0,12.0,81,0.00,,,0.01,weatherlink.com 1.10,2013-07-18 15:10:00,
2013-07-18 10:25:00,82.0,75.0,30.12,East,92,7.0,11.0,79,0.00,,,0.01,weatherlink.com 1.10,2013-07-18 15:25:00,
2013-07-18 10:40:00,83.0,75.0,30.12,ESE,105,7.0,11.0,76,0.00,,,0.01,weatherlink.com 1.10,2013-07-18 15:40:00,
2013-07-18 10:55:00,83.2,75.0,30.11,East,92,7.0,10.0,75,0.00,,,0.01,weatherlink.com 1.10,2013-07-18 15:55:00,
2013-07-18 11:10:00,83.7,74.0,30.11,ENE,58,7.0,11.0,73,0.00,,,0.01,weatherlink.com 1.10,2013-07-18 16:10:00,
2013-07-18 11:25:00,84.0,74.0,30.11,ENE,73,8.0,14.0,71,0.00,,,0.01,weatherlink.com 1.10,2013-07-18 16:25:00,
2013-07-18 11:40:00,85.1,73.0,30.11,East,83,7.0,10.0,68,0.00,,,0.01,weatherlink.com 1.10,2013-07-18 16:40:00,
2013-07-18 11:55:00,85.3,74.0,30.11,East,92,5.0,13.0,68,0.00,,,0.01,weatherlink.com 1.10,2013-07-18 16:55:00,
2013-07-18 12:10:00,85.8,73.0,30.10,ENE,71,9.0,13.0,66,0.00,,,0.01,weatherlink.com 1.10,2013-07-18 17:10:00,
2013-07-18 12:25:00,86.2,72.0,30.10,East,85,9.0,10.0,63,0.00,,,0.01,weatherlink.com 1.10,2013-07-18 17:25:00,
2013-07-18 12:40:00,86.9,74.0,30.10,East,94,7.0,12.0,65,0.00,,,0.01,weatherlink.com 1.10,2013-07-18 17:40:00,
2013-07-18 12:55:00,87.5,72.0,30.10,SSE,153,7.0,10.0,61,0.00,,,0.01,weatherlink.com 1.10,2013-07-18 17:55:00,
2013-07-18 13:10:00,78.3,70.0,30.09,SSE,154,5.0,15.0,76,0.00,,,0.01,weatherlink.com 1.10,2013-07-18 18:10:00,
2013-07-18 13:25:00,77.1,72.0,30.08,SSE,150,4.0,11.0,84,0.01,,,0.02,weatherlink.com 1.10,2013-07-18 18:25:00,
2013-07-18 13:40:00,82.6,71.0,30.07,East,101,6.0,9.0,69,0.01,,,0.02,weatherlink.com 1.10,2013-07-18 18:40:00,
2013-07-18 13:55:00,85.4,72.0,30.07,SSE,150,12.0,16.0,64,0.01,,,0.02,weatherlink.com 1.10,2013-07-18 18:55:00,
2013-07-18 14:10:00,85.7,73.0,30.07,SSE,155,8.0,13.0,66,0.01,,,0.02,weatherlink.com 1.10,2013-07-18 19:10:00,
2013-07-18 14:25:00,83.3,74.0,30.06,ESE,121,4.0,9.0,73,0.00,,,0.02,weatherlink.com 1.10,2013-07-18 19:25:00,
2013-07-18 14:40:00,83.6,75.0,30.06,SE,146,6.0,18.0,74,0.00,,,0.02,weatherlink.com 1.10,2013-07-18 19:40:00,
2013-07-18 14:55:00,83.2,75.0,30.04,South,183,7.0,11.0,77,0.00,,,0.02,weatherlink.com 1.10,2013-07-18 19:55:00,
2013-07-18 15:11:00,85.4,75.0,30.03,ESE,108,6.0,8.0,71,0.00,,,0.02,weatherlink.com 1.10,2013-07-18 20:11:00,
2013-07-18 15:26:00,86.0,71.0,30.02,SE,125,5.0,9.0,61,0.00,,,0.02,weatherlink.com 1.10,2013-07-18 20:26:00,
2013-07-18 15:41:00,87.3,73.0,30.02,SE,136,7.0,12.0,63,0.00,,,0.02,weatherlink.com 1.10,2013-07-18 20:41:00,
2013-07-18 15:56:00,87.4,73.0,30.02,WSW,245,6.0,10.0,62,0.00,,,0.02,weatherlink.com 1.10,2013-07-18 20:56:00,
2013-07-18 16:11:00,87.2,74.0,30.02,SE,145,6.0,11.0,65,0.00,,,0.02,weatherlink.com 1.10,2013-07-18 21:11:00,
2013-07-18 16:26:00,88.5,74.0,30.01,SSE,166,6.0,9.0,62,0.00,,,0.02,weatherlink.com 1.10,2013-07-18 21:26:00,
2013-07-18 16:41:00,88.9,73.0,30.00,SSE,153,6.0,9.0,59,0.00,,,0.02,weatherlink.com 1.10,2013-07-18 21:41:00,
2013-07-18 16:56:00,89.5,72.0,29.99,South,178,2.0,8.0,57,0.00,,,0.02,weatherlink.com 1.10,2013-07-18 21:56:00,
2013-07-18 17:11:00,89.9,72.0,29.99,SSE,157,4.0,11.0,56,0.00,,,0.02,weatherlink.com 1.10,2013-07-18 22:11:00,
2013-07-18 17:26:00,90.2,72.0,29.99,SSE,154,4.0,8.0,55,0.00,,,0.02,weatherlink.com 1.10,2013-07-18 22:26:00,
2013-07-18 17:41:00,90.0,72.0,29.98,SSE,166,3.0,8.0,56,0.00,,,0.02,weatherlink.com 1.10,2013-07-18 22:41:00,
2013-07-18 17:56:00,90.4,72.0,29.96,ESE,103,10.0,10.0,55,0.00,,,0.02,weatherlink.com 1.10,2013-07-18 22:56:00,
2013-07-18 18:11:00,88.5,70.0,29.97,East,89,11.0,14.0,55,0.00,,,0.02,weatherlink.com 1.10,2013-07-18 23:11:00,
2013-07-18 18:26:00,85.8,70.0,29.97,ESE,120,5.0,16.0,59,0.00,,,0.02,weatherlink.com 1.10,2013-07-18 23:26:00,
2013-07-18 18:41:00,86.3,71.0,29.97,ENE,72,10.0,12.0,60,0.00,,,0.02,weatherlink.com 1.10,2013-07-18 23:41:00,
2013-07-18 18:56:00,85.5,72.0,29.96,ESE,118,3.0,9.0,65,0.00,,,0.02,weatherlink.com 1.10,2013-07-18 23:56:00,
2013-07-18 19:12:00,86.0,73.0,29.95,ESE,121,6.0,11.0,65,0.00,,,0.02,weatherlink.com 1.10,2013-07-19 00:12:00,
2013-07-18 19:26:00,86.2,73.0,29.95,SE,134,5.0,9.0,65,0.00,,,0.02,weatherlink.com 1.10,2013-07-19 00:26:00,
2013-07-18 19:41:00,85.4,73.0,29.96,East,93,4.0,6.0,67,0.00,,,0.02,weatherlink.com 1.10,2013-07-19 00:41:00,
2013-07-18 19:56:00,84.7,73.0,29.96,East,101,6.0,6.0,69,0.00,,,0.02,weatherlink.com 1.10,2013-07-19 00:56:00,
2013-07-18 20:11:00,84.0,74.0,29.96,East,86,3.0,6.0,72,0.00,,,0.02,weatherlink.com 1.10,2013-07-19 01:11:00,
2013-07-18 20:26:00,83.3,74.0,29.96,East,82,2.0,5.0,74,0.00,,,0.02,weatherlink.com 1.10,2013-07-19 01:26:00,
2013-07-18 20:41:00,82.6,74.0,29.97,East,101,4.0,5.0,75,0.00,,,0.02,weatherlink.com 1.10,2013-07-19 01:41:00,
2013-07-18 20:56:00,81.7,73.0,29.97,East,82,4.0,7.0,76,0.00,,,0.02,weatherlink.com 1.10,2013-07-19 01:56:00,
2013-07-18 21:11:00,81.0,74.0,29.98,East,85,4.0,4.0,78,0.00,,,0.02,weatherlink.com 1.10,2013-07-19 02:11:00,
2013-07-18 21:26:00,80.3,73.0,29.98,East,92,5.0,6.0,79,0.00,,,0.02,weatherlink.com 1.10,2013-07-19 02:26:00,
2013-07-18 21:41:00,79.8,74.0,29.98,SE,133,0.0,5.0,81,0.00,,,0.02,weatherlink.com 1.10,2013-07-19 02:41:00,
2013-07-18 21:56:00,79.2,74.0,29.98,East,87,2.0,5.0,83,0.00,,,0.02,weatherlink.com 1.10,2013-07-19 02:56:00,
2013-07-18 22:11:00,78.6,73.0,29.99,ESE,107,1.0,4.0,84,0.00,,,0.02,weatherlink.com 1.10,2013-07-19 03:11:00,
2013-07-18 22:26:00,78.1,74.0,30.00,East,86,4.0,4.0,86,0.00,,,0.02,weatherlink.com 1.10,2013-07-19 03:26:00,
2013-07-18 22:41:00,77.8,74.0,30.00,East,101,3.0,3.0,87,0.00,,,0.02,weatherlink.com 1.10,2013-07-19 03:41:00,
2013-07-18 22:56:00,77.6,74.0,30.01,ESE,121,2.0,6.0,87,0.00,,,0.02,weatherlink.com 1.10,2013-07-19 03:56:00,
2013-07-18 23:11:00,77.2,74.0,30.01,East,92,1.0,3.0,88,0.00,,,0.02,weatherlink.com 1.10,2013-07-19 04:11:00,
2013-07-18 23:26:00,76.7,73.0,30.00,SE,125,2.0,3.0,89,0.00,,,0.02,weatherlink.com 1.10,2013-07-19 04:26:00,
2013-07-18 23:41:00,76.4,73.0,30.01,East,98,3.0,3.0,90,0.00,,,0.02,weatherlink.com 1.10,2013-07-19 04:41:00,
2013-07-18 23:56:00,76.1,73.0,30.01,SE,143,1.0,3.0,91,0.00,,,0.02,weatherlink.com 1.10,2013-07-19 04:56:00,